sensor_id;sensor_type;location;lat;lon;timestamp;temperature;humidity
11399;DHT22;5755;48.116;11.608;2024-03-08T00:01:36;1.50;98.70
11399;DHT22;5755;48.116;11.608;2024-03-08T00:04:03;1.40;98.70
11399;DHT22;5755;48.116;11.608;2024-03-08T00:06:33;1.50;98.90
11399;DHT22;5755;48.116;11.608;2024-03-08T00:08:59;1.50;98.90
11399;DHT22;5755;48.116;11.608;2024-03-08T00:11:26;1.50;98.60
11399;DHT22;5755;48.116;11.608;2024-03-08T00:13:53;1.40;98.60
11399;DHT22;5755;48.116;11.608;2024-03-08T00:16:20;1.40;98.60
11399;DHT22;5755;48.116;11.608;2024-03-08T00:18:48;1.50;98.50
11399;DHT22;5755;48.116;11.608;2024-03-08T00:21:15;1.40;98.50
11399;DHT22;5755;48.116;11.608;2024-03-08T00:23:44;1.40;98.40
11399;DHT22;5755;48.116;11.608;2024-03-08T00:26:11;1.40;98.50
11399;DHT22;5755;48.116;11.608;2024-03-08T00:28:38;1.40;98.30
11399;DHT22;5755;48.116;11.608;2024-03-08T00:31:05;1.40;98.20
11399;DHT22;5755;48.116;11.608;2024-03-08T00:33:33;1.30;98.20
11399;DHT22;5755;48.116;11.608;2024-03-08T00:36:00;1.30;98.70
11399;DHT22;5755;48.116;11.608;2024-03-08T00:38:27;1.30;98.70
11399;DHT22;5755;48.116;11.608;2024-03-08T00:40:56;1.20;98.80
11399;DHT22;5755;48.116;11.608;2024-03-08T00:43:23;1.20;99.10
11399;DHT22;5755;48.116;11.608;2024-03-08T00:45:49;1.20;99.00
11399;DHT22;5755;48.116;11.608;2024-03-08T00:48:16;1.20;98.80
11399;DHT22;5755;48.116;11.608;2024-03-08T00:50:43;1.30;98.80
11399;DHT22;5755;48.116;11.608;2024-03-08T00:53:11;1.20;98.70
11399;DHT22;5755;48.116;11.608;2024-03-08T00:55:38;1.30;98.50
11399;DHT22;5755;48.116;11.608;2024-03-08T00:58:06;1.30;98.40
11399;DHT22;5755;48.116;11.608;2024-03-08T01:00:34;1.20;98.50
11399;DHT22;5755;48.116;11.608;2024-03-08T01:03:01;1.30;98.70
11399;DHT22;5755;48.116;11.608;2024-03-08T01:05:29;1.20;98.30
11399;DHT22;5755;48.116;11.608;2024-03-08T01:07:56;1.20;98.60
11399;DHT22;5755;48.116;11.608;2024-03-08T01:10:23;1.30;98.40
11399;DHT22;5755;48.116;11.608;2024-03-08T01:12:49;1.20;98.40
11399;DHT22;5755;48.116;11.608;2024-03-08T01:15:18;1.20;98.60
11399;DHT22;5755;48.116;11.608;2024-03-08T01:17:45;1.20;98.60
11399;DHT22;5755;48.116;11.608;2024-03-08T01:20:12;1.10;98.60
11399;DHT22;5755;48.116;11.608;2024-03-08T01:22:39;1.10;98.90
11399;DHT22;5755;48.116;11.608;2024-03-08T01:25:07;1.10;99.00
11399;DHT22;5755;48.116;11.608;2024-03-08T01:27:34;1.20;98.70
11399;DHT22;5755;48.116;11.608;2024-03-08T01:30:03;1.10;98.70
11399;DHT22;5755;48.116;11.608;2024-03-08T01:32:31;1.10;98.90
11399;DHT22;5755;48.116;11.608;2024-03-08T01:34:58;1.10;99.00
11399;DHT22;5755;48.116;11.608;2024-03-08T01:37:24;1.10;99.00
11399;DHT22;5755;48.116;11.608;2024-03-08T01:39:51;1.10;99.20
11399;DHT22;5755;48.116;11.608;2024-03-08T01:42:18;1.10;99.30
11399;DHT22;5755;48.116;11.608;2024-03-08T01:44:45;1.20;98.90
11399;DHT22;5755;48.116;11.608;2024-03-08T01:47:12;1.20;98.60
11399;DHT22;5755;48.116;11.608;2024-03-08T01:49:41;1.10;98.70
11399;DHT22;5755;48.116;11.608;2024-03-08T01:52:07;1.10;98.80
11399;DHT22;5755;48.116;11.608;2024-03-08T01:54:34;1.20;98.60
11399;DHT22;5755;48.116;11.608;2024-03-08T01:57:02;1.10;98.50
11399;DHT22;5755;48.116;11.608;2024-03-08T01:59:29;1.20;98.70
11399;DHT22;5755;48.116;11.608;2024-03-08T02:02:01;1.10;98.60
11399;DHT22;5755;48.116;11.608;2024-03-08T02:04:28;1.10;98.80
11399;DHT22;5755;48.116;11.608;2024-03-08T02:06:57;1.00;99.00
11399;DHT22;5755;48.116;11.608;2024-03-08T02:09:24;1.00;98.80
11399;DHT22;5755;48.116;11.608;2024-03-08T02:11:51;0.90;99.20
11399;DHT22;5755;48.116;11.608;2024-03-08T02:14:20;0.90;99.40
11399;DHT22;5755;48.116;11.608;2024-03-08T02:16:47;0.90;99.40
11399;DHT22;5755;48.116;11.608;2024-03-08T02:19:16;0.90;99.40
11399;DHT22;5755;48.116;11.608;2024-03-08T02:21:44;0.90;99.40
11399;DHT22;5755;48.116;11.608;2024-03-08T02:24:13;0.90;99.40
11399;DHT22;5755;48.116;11.608;2024-03-08T02:26:40;0.90;99.40
11399;DHT22;5755;48.116;11.608;2024-03-08T02:29:08;0.90;99.40
11399;DHT22;5755;48.116;11.608;2024-03-08T02:31:34;0.90;99.40
11399;DHT22;5755;48.116;11.608;2024-03-08T02:34:02;0.80;99.40
11399;DHT22;5755;48.116;11.608;2024-03-08T02:36:30;0.80;99.60
11399;DHT22;5755;48.116;11.608;2024-03-08T02:39:01;0.90;99.40
11399;DHT22;5755;48.116;11.608;2024-03-08T02:41:27;0.90;99.40
11399;DHT22;5755;48.116;11.608;2024-03-08T02:43:57;0.80;99.60
11399;DHT22;5755;48.116;11.608;2024-03-08T02:46:27;0.80;99.50
11399;DHT22;5755;48.116;11.608;2024-03-08T02:49:01;0.80;99.90
11399;DHT22;5755;48.116;11.608;2024-03-08T02:51:36;0.80;99.40
11399;DHT22;5755;48.116;11.608;2024-03-08T02:54:04;0.70;99.70
11399;DHT22;5755;48.116;11.608;2024-03-08T02:56:31;0.60;99.90
11399;DHT22;5755;48.116;11.608;2024-03-08T02:59:00;0.60;99.90
11399;DHT22;5755;48.116;11.608;2024-03-08T03:01:27;0.60;99.90
11399;DHT22;5755;48.116;11.608;2024-03-08T03:03:53;0.60;99.90
11399;DHT22;5755;48.116;11.608;2024-03-08T03:06:20;0.60;99.90
11399;DHT22;5755;48.116;11.608;2024-03-08T03:08:47;0.60;99.90
11399;DHT22;5755;48.116;11.608;2024-03-08T03:11:15;0.70;99.90
11399;DHT22;5755;48.116;11.608;2024-03-08T03:13:42;0.70;99.90
11399;DHT22;5755;48.116;11.608;2024-03-08T03:16:17;0.70;99.90
11399;DHT22;5755;48.116;11.608;2024-03-08T03:18:45;0.70;99.90
11399;DHT22;5755;48.116;11.608;2024-03-08T03:21:11;0.70;99.90
11399;DHT22;5755;48.116;11.608;2024-03-08T03:23:39;0.60;99.90
11399;DHT22;5755;48.116;11.608;2024-03-08T03:26:07;0.60;99.90
11399;DHT22;5755;48.116;11.608;2024-03-08T03:28:35;0.60;99.90
11399;DHT22;5755;48.116;11.608;2024-03-08T03:31:05;0.60;99.90
11399;DHT22;5755;48.116;11.608;2024-03-08T03:33:32;0.60;99.90
11399;DHT22;5755;48.116;11.608;2024-03-08T03:35:59;0.60;99.90
11399;DHT22;5755;48.116;11.608;2024-03-08T03:38:26;0.60;99.90
11399;DHT22;5755;48.116;11.608;2024-03-08T03:40:53;0.60;99.90
11399;DHT22;5755;48.116;11.608;2024-03-08T03:43:22;0.60;99.90
11399;DHT22;5755;48.116;11.608;2024-03-08T03:45:51;0.60;99.90
11399;DHT22;5755;48.116;11.608;2024-03-08T03:48:19;0.50;99.90
11399;DHT22;5755;48.116;11.608;2024-03-08T03:50:46;0.50;99.90
11399;DHT22;5755;48.116;11.608;2024-03-08T03:53:14;0.50;99.90
11399;DHT22;5755;48.116;11.608;2024-03-08T03:55:40;0.50;99.90
11399;DHT22;5755;48.116;11.608;2024-03-08T03:58:08;0.50;99.90
11399;DHT22;5755;48.116;11.608;2024-03-08T04:00:35;0.60;99.90
11399;DHT22;5755;48.116;11.608;2024-03-08T04:03:03;0.50;99.90
11399;DHT22;5755;48.116;11.608;2024-03-08T04:05:30;0.50;99.90
11399;DHT22;5755;48.116;11.608;2024-03-08T04:07:57;0.50;99.90
11399;DHT22;5755;48.116;11.608;2024-03-08T04:10:24;0.50;99.90
11399;DHT22;5755;48.116;11.608;2024-03-08T04:12:50;0.50;99.90
11399;DHT22;5755;48.116;11.608;2024-03-08T04:15:17;0.50;99.90
11399;DHT22;5755;48.116;11.608;2024-03-08T04:17:44;0.40;99.90
11399;DHT22;5755;48.116;11.608;2024-03-08T04:20:12;0.40;99.90
11399;DHT22;5755;48.116;11.608;2024-03-08T04:22:39;0.40;99.90
11399;DHT22;5755;48.116;11.608;2024-03-08T04:25:07;0.30;99.90
11399;DHT22;5755;48.116;11.608;2024-03-08T04:27:35;0.40;99.90
11399;DHT22;5755;48.116;11.608;2024-03-08T04:30:02;0.30;99.90
11399;DHT22;5755;48.116;11.608;2024-03-08T04:32:29;0.30;99.90
11399;DHT22;5755;48.116;11.608;2024-03-08T04:34:57;0.30;99.90
11399;DHT22;5755;48.116;11.608;2024-03-08T04:37:27;0.30;99.90
11399;DHT22;5755;48.116;11.608;2024-03-08T04:39:55;0.30;99.90
11399;DHT22;5755;48.116;11.608;2024-03-08T04:42:22;0.40;99.90
11399;DHT22;5755;48.116;11.608;2024-03-08T04:44:48;0.30;99.90
11399;DHT22;5755;48.116;11.608;2024-03-08T04:47:15;0.30;99.90
11399;DHT22;5755;48.116;11.608;2024-03-08T04:49:43;0.30;99.90
11399;DHT22;5755;48.116;11.608;2024-03-08T04:52:10;0.30;99.90
11399;DHT22;5755;48.116;11.608;2024-03-08T04:54:38;0.30;99.90
11399;DHT22;5755;48.116;11.608;2024-03-08T04:57:05;0.30;99.90
11399;DHT22;5755;48.116;11.608;2024-03-08T04:59:52;0.30;99.90
11399;DHT22;5755;48.116;11.608;2024-03-08T05:02:19;0.30;99.90
11399;DHT22;5755;48.116;11.608;2024-03-08T05:04:48;0.30;99.90
11399;DHT22;5755;48.116;11.608;2024-03-08T05:07:14;0.30;99.90
11399;DHT22;5755;48.116;11.608;2024-03-08T05:09:43;0.40;99.90
11399;DHT22;5755;48.116;11.608;2024-03-08T05:12:16;0.40;99.90
11399;DHT22;5755;48.116;11.608;2024-03-08T05:14:46;0.40;99.90
11399;DHT22;5755;48.116;11.608;2024-03-08T05:17:15;0.40;99.90
11399;DHT22;5755;48.116;11.608;2024-03-08T05:19:41;0.50;99.90
11399;DHT22;5755;48.116;11.608;2024-03-08T05:22:08;0.40;99.90
11399;DHT22;5755;48.116;11.608;2024-03-08T05:24:35;0.50;99.90
11399;DHT22;5755;48.116;11.608;2024-03-08T05:27:04;0.40;99.90
11399;DHT22;5755;48.116;11.608;2024-03-08T05:29:30;0.50;99.90
11399;DHT22;5755;48.116;11.608;2024-03-08T05:31:57;0.50;99.90
11399;DHT22;5755;48.116;11.608;2024-03-08T05:34:25;0.50;99.90
11399;DHT22;5755;48.116;11.608;2024-03-08T05:36:53;0.50;99.90
11399;DHT22;5755;48.116;11.608;2024-03-08T05:39:20;0.50;99.90
11399;DHT22;5755;48.116;11.608;2024-03-08T05:41:47;0.60;99.90
11399;DHT22;5755;48.116;11.608;2024-03-08T05:44:16;0.60;99.90
11399;DHT22;5755;48.116;11.608;2024-03-08T05:46:43;0.60;99.90
11399;DHT22;5755;48.116;11.608;2024-03-08T05:49:09;0.60;99.90
11399;DHT22;5755;48.116;11.608;2024-03-08T05:51:38;0.70;99.90
11399;DHT22;5755;48.116;11.608;2024-03-08T05:54:06;0.70;99.90
11399;DHT22;5755;48.116;11.608;2024-03-08T05:56:35;0.70;99.90
11399;DHT22;5755;48.116;11.608;2024-03-08T05:59:02;0.70;99.90
11399;DHT22;5755;48.116;11.608;2024-03-08T06:01:31;0.70;99.90
11399;DHT22;5755;48.116;11.608;2024-03-08T06:03:58;0.70;99.90
11399;DHT22;5755;48.116;11.608;2024-03-08T06:06:25;0.80;99.90
11399;DHT22;5755;48.116;11.608;2024-03-08T06:08:52;0.80;99.90
11399;DHT22;5755;48.116;11.608;2024-03-08T06:11:20;0.80;99.90
11399;DHT22;5755;48.116;11.608;2024-03-08T06:13:54;0.80;99.90
11399;DHT22;5755;48.116;11.608;2024-03-08T06:16:25;0.80;99.90
11399;DHT22;5755;48.116;11.608;2024-03-08T06:18:55;0.90;99.90
11399;DHT22;5755;48.116;11.608;2024-03-08T06:21:22;1.00;99.90
11399;DHT22;5755;48.116;11.608;2024-03-08T06:23:52;1.00;99.90
11399;DHT22;5755;48.116;11.608;2024-03-08T06:26:20;1.20;99.70
11399;DHT22;5755;48.116;11.608;2024-03-08T06:28:47;1.20;99.40
11399;DHT22;5755;48.116;11.608;2024-03-08T06:31:14;0.90;99.40
11399;DHT22;5755;48.116;11.608;2024-03-08T06:33:41;1.00;99.40
11399;DHT22;5755;48.116;11.608;2024-03-08T06:36:10;1.10;99.40
11399;DHT22;5755;48.116;11.608;2024-03-08T06:38:37;1.20;99.20
11399;DHT22;5755;48.116;11.608;2024-03-08T06:41:07;1.30;99.00
11399;DHT22;5755;48.116;11.608;2024-03-08T06:43:41;1.30;99.00
11399;DHT22;5755;48.116;11.608;2024-03-08T06:46:08;1.20;99.00
11399;DHT22;5755;48.116;11.608;2024-03-08T06:48:34;1.40;98.80
11399;DHT22;5755;48.116;11.608;2024-03-08T06:51:03;1.40;98.20
11399;DHT22;5755;48.116;11.608;2024-03-08T06:53:31;1.40;98.00
11399;DHT22;5755;48.116;11.608;2024-03-08T06:55:57;1.30;98.30
11399;DHT22;5755;48.116;11.608;2024-03-08T06:58:24;1.50;98.10
11399;DHT22;5755;48.116;11.608;2024-03-08T07:00:51;1.50;97.60
11399;DHT22;5755;48.116;11.608;2024-03-08T07:03:18;1.50;97.90
11399;DHT22;5755;48.116;11.608;2024-03-08T07:05:47;1.60;97.60
11399;DHT22;5755;48.116;11.608;2024-03-08T07:08:14;1.50;97.70
11399;DHT22;5755;48.116;11.608;2024-03-08T07:10:43;1.60;97.80
11399;DHT22;5755;48.116;11.608;2024-03-08T07:13:10;1.70;97.30
11399;DHT22;5755;48.116;11.608;2024-03-08T07:15:37;1.70;97.20
11399;DHT22;5755;48.116;11.608;2024-03-08T07:18:05;1.70;97.10
11399;DHT22;5755;48.116;11.608;2024-03-08T07:20:34;1.80;97.00
11399;DHT22;5755;48.116;11.608;2024-03-08T07:23:02;1.90;96.70
11399;DHT22;5755;48.116;11.608;2024-03-08T07:25:50;2.10;96.30
11399;DHT22;5755;48.116;11.608;2024-03-08T07:28:16;2.20;95.90
11399;DHT22;5755;48.116;11.608;2024-03-08T07:30:44;2.40;95.40
11399;DHT22;5755;48.116;11.608;2024-03-08T07:33:26;2.30;94.80
11399;DHT22;5755;48.116;11.608;2024-03-08T07:35:53;2.30;95.50
11399;DHT22;5755;48.116;11.608;2024-03-08T07:38:20;2.40;95.10
11399;DHT22;5755;48.116;11.608;2024-03-08T07:40:47;2.50;94.50
11399;DHT22;5755;48.116;11.608;2024-03-08T07:43:15;2.40;95.20
11399;DHT22;5755;48.116;11.608;2024-03-08T07:45:43;2.60;94.80
11399;DHT22;5755;48.116;11.608;2024-03-08T07:48:09;2.50;94.50
11399;DHT22;5755;48.116;11.608;2024-03-08T07:50:36;2.50;95.00
11399;DHT22;5755;48.116;11.608;2024-03-08T07:53:04;2.90;94.60
11399;DHT22;5755;48.116;11.608;2024-03-08T07:55:32;2.90;93.70
11399;DHT22;5755;48.116;11.608;2024-03-08T07:57:58;3.10;93.20
11399;DHT22;5755;48.116;11.608;2024-03-08T08:00:26;2.90;93.30
11399;DHT22;5755;48.116;11.608;2024-03-08T08:02:53;2.90;93.80
11399;DHT22;5755;48.116;11.608;2024-03-08T08:05:20;3.30;93.20
11399;DHT22;5755;48.116;11.608;2024-03-08T08:07:47;3.60;92.20
11399;DHT22;5755;48.116;11.608;2024-03-08T08:10:15;3.70;91.80
11399;DHT22;5755;48.116;11.608;2024-03-08T08:12:46;3.80;91.20
11399;DHT22;5755;48.116;11.608;2024-03-08T08:15:13;4.20;90.70
11399;DHT22;5755;48.116;11.608;2024-03-08T08:17:43;4.20;90.50
11399;DHT22;5755;48.116;11.608;2024-03-08T08:20:10;4.00;89.10
11399;DHT22;5755;48.116;11.608;2024-03-08T08:22:38;3.90;90.50
11399;DHT22;5755;48.116;11.608;2024-03-08T08:25:06;4.10;90.80
11399;DHT22;5755;48.116;11.608;2024-03-08T08:27:32;4.60;90.00
11399;DHT22;5755;48.116;11.608;2024-03-08T08:29:59;4.80;88.90
11399;DHT22;5755;48.116;11.608;2024-03-08T08:32:26;4.20;89.90
11399;DHT22;5755;48.116;11.608;2024-03-08T08:34:54;3.50;93.00
11399;DHT22;5755;48.116;11.608;2024-03-08T08:37:21;3.60;91.50
11399;DHT22;5755;48.116;11.608;2024-03-08T08:39:49;4.10;91.60
11399;DHT22;5755;48.116;11.608;2024-03-08T08:42:16;4.40;91.00
11399;DHT22;5755;48.116;11.608;2024-03-08T08:44:43;5.00;89.00
11399;DHT22;5755;48.116;11.608;2024-03-08T08:47:10;5.40;83.40
11399;DHT22;5755;48.116;11.608;2024-03-08T08:49:37;5.60;81.90
11399;DHT22;5755;48.116;11.608;2024-03-08T08:52:05;5.50;80.40
11399;DHT22;5755;48.116;11.608;2024-03-08T08:54:32;5.40;79.70
11399;DHT22;5755;48.116;11.608;2024-03-08T08:56:59;5.50;82.50
11399;DHT22;5755;48.116;11.608;2024-03-08T08:59:28;6.20;76.60
11399;DHT22;5755;48.116;11.608;2024-03-08T09:01:55;7.10;71.90
11399;DHT22;5755;48.116;11.608;2024-03-08T09:04:22;7.40;58.40
11399;DHT22;5755;48.116;11.608;2024-03-08T09:06:49;7.40;52.20
11399;DHT22;5755;48.116;11.608;2024-03-08T09:09:17;8.30;46.90
11399;DHT22;5755;48.116;11.608;2024-03-08T09:11:44;8.40;44.10
11399;DHT22;5755;48.116;11.608;2024-03-08T09:14:11;9.30;39.20
11399;DHT22;5755;48.116;11.608;2024-03-08T09:16:38;10.10;29.30
11399;DHT22;5755;48.116;11.608;2024-03-08T09:19:05;9.40;33.30
11399;DHT22;5755;48.116;11.608;2024-03-08T09:21:32;9.90;32.00
11399;DHT22;5755;48.116;11.608;2024-03-08T09:24:00;11.10;24.50
11399;DHT22;5755;48.116;11.608;2024-03-08T09:26:28;11.20;23.00
11399;DHT22;5755;48.116;11.608;2024-03-08T09:28:55;10.50;24.10
11399;DHT22;5755;48.116;11.608;2024-03-08T09:31:21;11.40;24.80
11399;DHT22;5755;48.116;11.608;2024-03-08T09:33:48;12.40;20.50
11399;DHT22;5755;48.116;11.608;2024-03-08T09:36:16;12.60;20.60
11399;DHT22;5755;48.116;11.608;2024-03-08T09:38:42;13.30;18.80
11399;DHT22;5755;48.116;11.608;2024-03-08T09:41:09;14.10;16.50
11399;DHT22;5755;48.116;11.608;2024-03-08T09:43:39;13.20;15.90
11399;DHT22;5755;48.116;11.608;2024-03-08T09:46:06;13.50;16.20
11399;DHT22;5755;48.116;11.608;2024-03-08T09:48:34;14.00;15.30
11399;DHT22;5755;48.116;11.608;2024-03-08T09:51:01;15.00;14.00
11399;DHT22;5755;48.116;11.608;2024-03-08T09:53:29;15.70;11.30
11399;DHT22;5755;48.116;11.608;2024-03-08T09:55:56;15.40;12.70
11399;DHT22;5755;48.116;11.608;2024-03-08T09:58:22;15.70;12.50
11399;DHT22;5755;48.116;11.608;2024-03-08T10:01:05;15.60;11.50
11399;DHT22;5755;48.116;11.608;2024-03-08T10:03:32;15.20;12.70
11399;DHT22;5755;48.116;11.608;2024-03-08T10:05:59;15.20;12.50
11399;DHT22;5755;48.116;11.608;2024-03-08T10:08:26;16.40;10.30
11399;DHT22;5755;48.116;11.608;2024-03-08T10:10:54;16.10;10.40
11399;DHT22;5755;48.116;11.608;2024-03-08T10:13:24;16.00;11.00
11399;DHT22;5755;48.116;11.608;2024-03-08T10:15:52;15.70;11.70
11399;DHT22;5755;48.116;11.608;2024-03-08T10:18:21;16.00;10.90
11399;DHT22;5755;48.116;11.608;2024-03-08T10:21:02;16.00;10.90
11399;DHT22;5755;48.116;11.608;2024-03-08T10:23:30;14.20;12.10
11399;DHT22;5755;48.116;11.608;2024-03-08T10:25:57;12.20;16.00
11399;DHT22;5755;48.116;11.608;2024-03-08T10:28:24;12.90;15.50
11399;DHT22;5755;48.116;11.608;2024-03-08T10:30:51;13.40;16.00
11399;DHT22;5755;48.116;11.608;2024-03-08T10:33:18;14.00;14.20
11399;DHT22;5755;48.116;11.608;2024-03-08T10:35:46;15.00;12.60
11399;DHT22;5755;48.116;11.608;2024-03-08T10:38:15;14.80;12.10
11399;DHT22;5755;48.116;11.608;2024-03-08T10:40:45;14.70;12.70
11399;DHT22;5755;48.116;11.608;2024-03-08T10:43:21;13.30;13.80
11399;DHT22;5755;48.116;11.608;2024-03-08T10:46:01;13.40;14.60
11399;DHT22;5755;48.116;11.608;2024-03-08T10:48:32;13.80;14.70
11399;DHT22;5755;48.116;11.608;2024-03-08T10:51:04;12.60;15.40
11399;DHT22;5755;48.116;11.608;2024-03-08T10:53:34;12.60;16.60
11399;DHT22;5755;48.116;11.608;2024-03-08T10:56:04;12.80;16.20
11399;DHT22;5755;48.116;11.608;2024-03-08T10:58:33;12.80;17.30
11399;DHT22;5755;48.116;11.608;2024-03-08T11:01:02;13.20;15.20
11399;DHT22;5755;48.116;11.608;2024-03-08T11:03:45;13.60;14.40
11399;DHT22;5755;48.116;11.608;2024-03-08T11:06:16;13.00;15.30
11399;DHT22;5755;48.116;11.608;2024-03-08T11:08:44;12.70;16.20
11399;DHT22;5755;48.116;11.608;2024-03-08T11:11:26;13.00;16.60
11399;DHT22;5755;48.116;11.608;2024-03-08T11:13:56;13.90;14.60
11399;DHT22;5755;48.116;11.608;2024-03-08T11:16:39;13.90;14.90
11399;DHT22;5755;48.116;11.608;2024-03-08T11:19:25;13.30;15.60
11399;DHT22;5755;48.116;11.608;2024-03-08T11:22:03;12.40;16.70
11399;DHT22;5755;48.116;11.608;2024-03-08T11:24:39;12.00;18.40
11399;DHT22;5755;48.116;11.608;2024-03-08T11:27:07;11.90;18.40
11399;DHT22;5755;48.116;11.608;2024-03-08T11:29:38;11.70;18.50
11399;DHT22;5755;48.116;11.608;2024-03-08T11:32:08;11.00;19.80
11399;DHT22;5755;48.116;11.608;2024-03-08T11:34:36;10.90;20.70
11399;DHT22;5755;48.116;11.608;2024-03-08T11:37:06;10.80;20.70
11399;DHT22;5755;48.116;11.608;2024-03-08T11:39:38;10.70;21.20
11399;DHT22;5755;48.116;11.608;2024-03-08T11:42:06;10.50;23.20
11399;DHT22;5755;48.116;11.608;2024-03-08T11:44:33;10.50;22.80
11399;DHT22;5755;48.116;11.608;2024-03-08T11:47:01;10.30;23.90
11399;DHT22;5755;48.116;11.608;2024-03-08T11:49:31;10.00;23.60
11399;DHT22;5755;48.116;11.608;2024-03-08T11:51:59;10.10;23.70
11399;DHT22;5755;48.116;11.608;2024-03-08T11:54:27;10.10;23.70
11399;DHT22;5755;48.116;11.608;2024-03-08T11:56:55;10.00;23.60
11399;DHT22;5755;48.116;11.608;2024-03-08T11:59:26;10.00;23.70
11399;DHT22;5755;48.116;11.608;2024-03-08T12:02:01;9.50;24.70
11399;DHT22;5755;48.116;11.608;2024-03-08T12:04:29;9.70;25.20
11399;DHT22;5755;48.116;11.608;2024-03-08T12:06:57;9.50;26.70
11399;DHT22;5755;48.116;11.608;2024-03-08T12:09:26;9.60;27.50
11399;DHT22;5755;48.116;11.608;2024-03-08T12:11:53;9.90;27.00
11399;DHT22;5755;48.116;11.608;2024-03-08T12:14:20;9.80;27.30
11399;DHT22;5755;48.116;11.608;2024-03-08T12:16:50;9.80;26.30
11399;DHT22;5755;48.116;11.608;2024-03-08T12:19:17;9.60;26.10
11399;DHT22;5755;48.116;11.608;2024-03-08T12:21:44;9.60;26.70
11399;DHT22;5755;48.116;11.608;2024-03-08T12:24:15;9.60;27.30
11399;DHT22;5755;48.116;11.608;2024-03-08T12:26:46;9.70;27.60
11399;DHT22;5755;48.116;11.608;2024-03-08T12:29:15;9.80;27.40
11399;DHT22;5755;48.116;11.608;2024-03-08T12:31:43;10.10;23.70
11399;DHT22;5755;48.116;11.608;2024-03-08T12:34:10;10.10;23.80
11399;DHT22;5755;48.116;11.608;2024-03-08T12:36:44;10.30;23.90
11399;DHT22;5755;48.116;11.608;2024-03-08T12:39:13;10.30;23.90
11399;DHT22;5755;48.116;11.608;2024-03-08T12:41:41;10.20;23.80
11399;DHT22;5755;48.116;11.608;2024-03-08T12:44:10;9.90;25.00
11399;DHT22;5755;48.116;11.608;2024-03-08T12:46:37;9.90;25.70
11399;DHT22;5755;48.116;11.608;2024-03-08T12:49:06;9.80;25.90
11399;DHT22;5755;48.116;11.608;2024-03-08T12:51:33;9.70;24.80
11399;DHT22;5755;48.116;11.608;2024-03-08T12:54:01;9.80;24.90
11399;DHT22;5755;48.116;11.608;2024-03-08T12:56:31;9.80;24.90
11399;DHT22;5755;48.116;11.608;2024-03-08T12:58:59;9.80;24.90
11399;DHT22;5755;48.116;11.608;2024-03-08T13:01:27;9.60;24.80
11399;DHT22;5755;48.116;11.608;2024-03-08T13:03:54;9.70;24.80
11399;DHT22;5755;48.116;11.608;2024-03-08T13:06:22;9.80;24.90
11399;DHT22;5755;48.116;11.608;2024-03-08T13:08:50;9.90;25.00
11399;DHT22;5755;48.116;11.608;2024-03-08T13:11:17;9.90;25.20
11399;DHT22;5755;48.116;11.608;2024-03-08T13:13:44;9.90;25.00
11399;DHT22;5755;48.116;11.608;2024-03-08T13:16:11;9.90;25.00
11399;DHT22;5755;48.116;11.608;2024-03-08T13:18:41;10.10;23.70
11399;DHT22;5755;48.116;11.608;2024-03-08T13:21:09;10.10;23.80
11399;DHT22;5755;48.116;11.608;2024-03-08T13:23:36;9.90;25.00
11399;DHT22;5755;48.116;11.608;2024-03-08T13:26:05;10.10;23.70
11399;DHT22;5755;48.116;11.608;2024-03-08T13:28:32;10.10;23.80
11399;DHT22;5755;48.116;11.608;2024-03-08T13:31:03;10.10;23.70
11399;DHT22;5755;48.116;11.608;2024-03-08T13:33:32;10.10;23.80
11399;DHT22;5755;48.116;11.608;2024-03-08T13:36:02;10.10;23.70
11399;DHT22;5755;48.116;11.608;2024-03-08T13:38:32;10.20;23.80
11399;DHT22;5755;48.116;11.608;2024-03-08T13:40:59;10.30;23.90
11399;DHT22;5755;48.116;11.608;2024-03-08T13:43:26;10.40;24.00
11399;DHT22;5755;48.116;11.608;2024-03-08T13:45:54;10.30;23.90
11399;DHT22;5755;48.116;11.608;2024-03-08T13:48:21;10.30;23.90
11399;DHT22;5755;48.116;11.608;2024-03-08T13:50:48;10.20;23.80
11399;DHT22;5755;48.116;11.608;2024-03-08T13:53:16;10.20;23.80
11399;DHT22;5755;48.116;11.608;2024-03-08T13:55:44;10.20;23.80
11399;DHT22;5755;48.116;11.608;2024-03-08T13:58:10;10.20;23.80
11399;DHT22;5755;48.116;11.608;2024-03-08T14:00:39;10.30;23.90
11399;DHT22;5755;48.116;11.608;2024-03-08T14:03:09;10.30;23.90
11399;DHT22;5755;48.116;11.608;2024-03-08T14:05:39;10.40;24.10
11399;DHT22;5755;48.116;11.608;2024-03-08T14:08:07;10.30;23.90
11399;DHT22;5755;48.116;11.608;2024-03-08T14:10:35;10.20;23.80
11399;DHT22;5755;48.116;11.608;2024-03-08T14:13:03;10.30;23.90
11399;DHT22;5755;48.116;11.608;2024-03-08T14:15:30;10.30;23.90
11399;DHT22;5755;48.116;11.608;2024-03-08T14:17:57;10.40;24.00
11399;DHT22;5755;48.116;11.608;2024-03-08T14:20:24;10.50;24.10
11399;DHT22;5755;48.116;11.608;2024-03-08T14:22:51;10.40;24.00
11399;DHT22;5755;48.116;11.608;2024-03-08T14:25:18;10.30;23.90
11399;DHT22;5755;48.116;11.608;2024-03-08T14:27:46;10.20;23.80
11399;DHT22;5755;48.116;11.608;2024-03-08T14:30:15;10.20;23.80
11399;DHT22;5755;48.116;11.608;2024-03-08T14:32:57;10.20;23.80
11399;DHT22;5755;48.116;11.608;2024-03-08T14:35:25;10.20;23.80
11399;DHT22;5755;48.116;11.608;2024-03-08T14:37:52;10.10;23.70
11399;DHT22;5755;48.116;11.608;2024-03-08T14:40:19;10.10;23.80
11399;DHT22;5755;48.116;11.608;2024-03-08T14:42:49;10.10;23.80
11399;DHT22;5755;48.116;11.608;2024-03-08T14:45:16;10.30;23.90
11399;DHT22;5755;48.116;11.608;2024-03-08T14:47:45;10.10;23.80
11399;DHT22;5755;48.116;11.608;2024-03-08T14:50:15;10.00;23.70
11399;DHT22;5755;48.116;11.608;2024-03-08T14:52:42;10.10;23.80
11399;DHT22;5755;48.116;11.608;2024-03-08T14:55:09;10.00;23.60
11399;DHT22;5755;48.116;11.608;2024-03-08T14:57:39;10.00;23.70
11399;DHT22;5755;48.116;11.608;2024-03-08T15:00:09;9.80;24.90
11399;DHT22;5755;48.116;11.608;2024-03-08T15:02:42;10.00;23.70
11399;DHT22;5755;48.116;11.608;2024-03-08T15:05:09;10.00;23.60
11399;DHT22;5755;48.116;11.608;2024-03-08T15:07:37;9.90;25.00
11399;DHT22;5755;48.116;11.608;2024-03-08T15:10:06;9.90;25.00
11399;DHT22;5755;48.116;11.608;2024-03-08T15:12:36;9.90;25.10
11399;DHT22;5755;48.116;11.608;2024-03-08T15:15:06;9.80;25.80
11399;DHT22;5755;48.116;11.608;2024-03-08T15:17:35;9.80;24.90
11399;DHT22;5755;48.116;11.608;2024-03-08T15:20:02;9.80;26.00
11399;DHT22;5755;48.116;11.608;2024-03-08T15:22:29;9.80;24.90
11399;DHT22;5755;48.116;11.608;2024-03-08T15:24:56;9.70;24.80
11399;DHT22;5755;48.116;11.608;2024-03-08T15:27:24;9.60;26.60
11399;DHT22;5755;48.116;11.608;2024-03-08T15:29:50;9.60;26.30
11399;DHT22;5755;48.116;11.608;2024-03-08T15:32:21;9.50;25.90
11399;DHT22;5755;48.116;11.608;2024-03-08T15:34:49;9.50;25.20
11399;DHT22;5755;48.116;11.608;2024-03-08T15:37:19;9.50;26.40
11399;DHT22;5755;48.116;11.608;2024-03-08T15:39:46;9.50;27.10
11399;DHT22;5755;48.116;11.608;2024-03-08T15:42:13;9.50;27.20
11399;DHT22;5755;48.116;11.608;2024-03-08T15:44:40;9.50;27.70
11399;DHT22;5755;48.116;11.608;2024-03-08T15:47:08;9.30;28.40
11399;DHT22;5755;48.116;11.608;2024-03-08T15:49:37;9.30;27.40